Time;durP1;ratioP1;P1;durP2;ratioP2;P2;SDS_P1;SDS_P2;PMS_P1;PMS_P2;Temp;Humidity;BMP_temperature;BMP_pressure;BME280_temperature;BME280_humidity;BME280_pressure;Samples;Min_cycle;Max_cycle;Signal;HPM_P1;HPM_P2
2022/04/25 00:02:00;;;;;;;120.25;108.97;;;11.70;57.20;;;;;;5074255;28;20055;-71
2022/04/25 00:04:28;;;;;;;119.28;107.90;;;11.70;57.10;;;;;;5073966;28;20139;-71
2022/04/25 00:06:55;;;;;;;121.28;110.03;;;11.70;57.60;;;;;;5073892;28;20076;-70
2022/04/25 00:09:22;;;;;;;119.68;108.47;;;11.70;57.70;;;;;;5072794;28;20057;-71
2022/04/25 00:11:49;;;;;;;120.93;109.43;;;11.70;57.90;;;;;;5072462;28;20513;-71
2022/04/25 00:14:16;;;;;;;120.32;108.95;;;11.60;58.10;;;;;;5072654;28;20045;-71
2022/04/25 00:16:43;;;;;;;120.53;109.03;;;11.60;58.20;;;;;;5072475;28;20487;-70
2022/04/25 00:19:10;;;;;;;120.82;109.38;;;11.60;58.60;;;;;;5072210;28;20049;-71
2022/04/25 00:21:38;;;;;;;121.72;110.22;;;11.50;58.70;;;;;;5072658;28;20132;-71
2022/04/25 00:24:06;;;;;;;122.05;110.47;;;11.50;59.30;;;;;;5072291;28;20041;-70
2022/04/25 00:26:32;;;;;;;121.65;110.15;;;11.50;58.90;;;;;;5072350;28;20049;-71
2022/04/25 00:28:59;;;;;;;120.72;109.47;;;11.50;59.20;;;;;;5072244;28;20499;-71
2022/04/25 00:31:26;;;;;;;122.75;111.10;;;11.50;59.40;;;;;;5072175;28;20049;-70
2022/04/25 00:33:53;;;;;;;122.53;111.05;;;11.50;59.60;;;;;;5072421;28;20525;-71
2022/04/25 00:36:20;;;;;;;121.20;109.95;;;11.50;59.80;;;;;;5072444;28;20131;-70
2022/04/25 00:38:48;;;;;;;123.22;111.32;;;11.50;60.00;;;;;;5071804;28;20491;-71
2022/04/25 00:41:15;;;;;;;123.03;111.05;;;11.50;60.10;;;;;;5072347;28;20047;-71
2022/04/25 00:43:42;;;;;;;122.25;110.90;;;11.40;60.30;;;;;;5072602;28;20126;-71
2022/04/25 00:46:21;;;;;;;122.60;111.07;;;11.40;60.60;;;;;;5073545;28;20053;-71
2022/04/25 00:48:48;;;;;;;122.70;111.00;;;11.40;61.00;;;;;;5073128;28;20110;-71
2022/04/25 00:51:15;;;;;;;123.03;111.30;;;11.40;61.00;;;;;;5072477;28;20048;-71
2022/04/25 00:53:44;;;;;;;123.97;112.25;;;11.40;61.60;;;;;;5073230;28;20138;-71
2022/04/25 00:56:15;;;;;;;123.05;111.40;;;11.40;62.10;;;;;;5071603;28;20059;-71
2022/04/25 00:58:44;;;;;;;123.75;111.97;;;11.40;62.30;;;;;;5073041;28;20414;-71
2022/04/25 01:01:12;;;;;;;123.43;111.55;;;11.40;62.50;;;;;;5073215;28;20066;-71
2022/04/25 01:03:40;;;;;;;124.55;112.63;;;11.30;62.70;;;;;;5072251;28;20506;-71
2022/04/25 01:06:07;;;;;;;121.57;109.93;;;11.30;63.20;;;;;;5072012;28;20136;-71
2022/04/25 01:08:34;;;;;;;123.07;111.38;;;11.30;63.40;;;;;;5071668;28;20052;-71
2022/04/25 01:11:02;;;;;;;121.45;109.95;;;11.30;63.60;;;;;;5075431;28;20513;-71
2022/04/25 01:13:30;;;;;;;122.50;110.90;;;11.20;63.90;;;;;;5076621;28;20553;-71
2022/04/25 01:15:57;;;;;;;122.55;110.95;;;11.20;64.10;;;;;;5075771;28;20051;-71
2022/04/25 01:18:24;;;;;;;122.85;111.32;;;11.20;64.30;;;;;;5075158;28;20489;-71
2022/04/25 01:20:56;;;;;;;122.72;111.25;;;11.20;64.50;;;;;;5076796;28;20056;-71
2022/04/25 01:28:55;;;;;;;123.03;111.25;;;11.20;64.90;;;;;;5076457;28;20057;-70
2022/04/25 01:31:22;;;;;;;123.93;112.22;;;11.20;65.20;;;;;;5076883;28;20099;-71
2022/04/25 01:33:49;;;;;;;123.10;111.30;;;11.10;65.40;;;;;;5075232;28;20052;-70
2022/04/25 01:36:16;;;;;;;122.85;111.35;;;11.10;65.60;;;;;;5075333;28;20080;-70
2022/04/25 01:38:44;;;;;;;123.93;112.30;;;11.10;65.80;;;;;;5076020;28;20048;-71
2022/04/25 01:41:11;;;;;;;123.43;111.57;;;11.10;66.20;;;;;;5076340;28;20049;-71
2022/04/25 01:43:38;;;;;;;123.68;111.68;;;11.10;66.20;;;;;;5057947;28;20041;-70
2022/04/25 01:46:05;;;;;;;123.75;111.85;;;11.10;66.40;;;;;;5074859;28;20099;-70
2022/04/25 01:48:32;;;;;;;123.40;111.50;;;11.10;66.50;;;;;;5074369;28;20052;-71
2022/04/25 01:50:59;;;;;;;124.90;113.22;;;11.10;66.70;;;;;;5074937;28;20136;-70
2022/04/25 01:53:26;;;;;;;124.05;112.35;;;11.10;66.80;;;;;;5076012;28;20090;-70
2022/04/25 01:55:55;;;;;;;124.05;112.20;;;11.10;66.90;;;;;;5074863;28;20045;-71
2022/04/25 01:58:21;;;;;;;125.30;113.32;;;11.10;67.10;;;;;;5074456;28;20049;-71
2022/04/25 02:00:49;;;;;;;123.35;111.68;;;11.00;67.30;;;;;;5076075;28;20057;-70
2022/04/25 02:03:15;;;;;;;125.32;113.38;;;11.00;67.40;;;;;;5074694;28;20049;-71
2022/04/25 02:05:42;;;;;;;124.63;112.88;;;11.00;67.40;;;;;;5075975;28;20080;-71
2022/04/25 02:08:09;;;;;;;123.93;112.32;;;11.00;67.70;;;;;;5074548;28;20049;-70
2022/04/25 02:10:36;;;;;;;127.47;115.25;;;11.00;67.40;;;;;;5074703;28;20056;-71
2022/04/25 02:13:05;;;;;;;123.15;111.47;;;10.90;67.50;;;;;;5074862;28;20048;-70
2022/04/25 02:15:31;;;;;;;124.45;112.70;;;10.90;67.60;;;;;;5075988;28;20049;-70
2022/04/25 02:17:58;;;;;;;124.07;112.35;;;10.90;67.80;;;;;;5074491;28;20188;-70
2022/04/25 02:20:25;;;;;;;124.85;113.03;;;10.90;67.80;;;;;;5074564;28;20128;-70
2022/04/25 02:22:52;;;;;;;123.53;111.82;;;10.90;67.80;;;;;;5073507;28;20141;-71
2022/04/25 02:25:20;;;;;;;124.75;112.75;;;10.90;67.70;;;;;;5075560;28;20068;-70
2022/04/25 02:27:47;;;;;;;124.20;112.13;;;10.90;67.80;;;;;;5075191;28;20466;-70
2022/04/25 02:30:15;;;;;;;125.78;113.80;;;10.90;67.70;;;;;;5075466;28;20494;-71
2022/04/25 02:32:43;;;;;;;125.20;113.32;;;10.90;67.80;;;;;;5074122;28;20053;-70
2022/04/25 02:35:10;;;;;;;124.85;112.47;;;10.90;67.80;;;;;;5074206;28;20056;-71
2022/04/25 02:37:37;;;;;;;124.00;112.10;;;10.90;67.90;;;;;;5073928;28;20533;-71
2022/04/25 02:40:04;;;;;;;124.60;112.65;;;10.90;67.90;;;;;;5073880;28;20148;-70
2022/04/25 02:42:56;;;;;;;123.97;112.00;;;10.90;68.00;;;;;;5075853;28;20037;-71
2022/04/25 02:45:24;;;;;;;122.68;111.05;;;10.90;67.60;;;;;;5060002;28;20143;-71
2022/04/25 02:47:52;;;;;;;123.80;112.03;;;10.90;67.90;;;;;;5073026;28;20052;-71
2022/04/25 02:50:19;;;;;;;125.40;113.15;;;10.80;68.00;;;;;;5073364;28;20064;-71
2022/04/25 02:52:46;;;;;;;125.40;113.45;;;10.90;68.20;;;;;;5073677;28;20049;-71
2022/04/25 02:55:13;;;;;;;125.15;113.00;;;10.80;68.10;;;;;;5072891;28;20051;-71
2022/04/25 02:57:40;;;;;;;124.75;112.85;;;10.80;68.30;;;;;;5073201;28;20492;-71
2022/04/25 03:00:08;;;;;;;124.80;112.82;;;10.80;68.40;;;;;;5073800;28;20535;-70
2022/04/25 03:02:36;;;;;;;122.82;111.28;;;10.80;68.20;;;;;;5073844;28;20052;-70
2022/04/25 03:05:03;;;;;;;124.80;113.00;;;10.80;68.40;;;;;;5075025;28;20053;-70
2022/04/25 03:07:30;;;;;;;125.10;113.28;;;10.80;68.80;;;;;;5074674;28;20053;-70
2022/04/25 03:09:57;;;;;;;123.47;111.68;;;10.80;68.90;;;;;;5073536;28;20053;-70
2022/04/25 03:12:25;;;;;;;122.15;110.55;;;10.80;69.10;;;;;;5073916;28;20606;-71
2022/04/25 03:14:52;;;;;;;124.03;111.78;;;10.80;69.20;;;;;;5073410;28;20049;-71
2022/04/25 03:17:19;;;;;;;124.43;112.55;;;10.80;69.00;;;;;;5073557;28;20126;-71
2022/04/25 03:19:47;;;;;;;124.60;112.70;;;10.80;69.10;;;;;;5073388;28;20510;-70
2022/04/25 03:22:14;;;;;;;124.47;112.38;;;10.80;69.00;;;;;;5073167;28;20080;-70
2022/04/25 03:24:41;;;;;;;125.03;113.03;;;10.80;69.20;;;;;;5073218;28;20124;-71
2022/04/25 03:27:08;;;;;;;125.82;113.88;;;10.70;69.30;;;;;;5073024;28;20060;-70
2022/04/25 03:29:35;;;;;;;122.68;110.70;;;10.70;69.20;;;;;;5073437;28;20059;-70
2022/04/25 03:32:02;;;;;;;122.05;110.55;;;10.70;69.30;;;;;;5073380;28;20052;-70
2022/04/25 03:34:30;;;;;;;122.20;110.53;;;10.70;69.40;;;;;;5073112;28;20049;-70
2022/04/25 03:36:58;;;;;;;123.63;111.68;;;10.70;69.30;;;;;;5074061;28;20430;-71
2022/04/25 03:39:25;;;;;;;122.28;110.40;;;10.70;69.70;;;;;;5072998;28;20053;-71
2022/04/25 03:41:53;;;;;;;123.60;111.50;;;10.60;69.60;;;;;;5073180;28;20132;-70
2022/04/25 03:44:19;;;;;;;124.00;112.05;;;10.60;69.80;;;;;;5073467;28;20049;-70
2022/04/25 03:46:46;;;;;;;123.68;111.60;;;10.60;70.00;;;;;;5072799;28;20151;-71
2022/04/25 03:49:14;;;;;;;123.57;111.57;;;10.50;70.10;;;;;;5072525;28;20049;-71
2022/04/25 03:51:42;;;;;;;122.60;110.78;;;10.60;70.30;;;;;;5072650;28;20099;-70
2022/04/25 03:54:10;;;;;;;122.15;110.45;;;10.50;70.00;;;;;;5072645;28;20091;-70
2022/04/25 03:59:21;;;;;;;122.80;110.80;;;10.50;70.20;;;;;;5055844;28;20108;-70
2022/04/25 04:01:48;;;;;;;122.78;111.00;;;10.50;70.20;;;;;;5072284;28;20044;-71
2022/04/25 04:04:15;;;;;;;122.43;110.47;;;10.50;70.40;;;;;;5072384;28;20053;-71
2022/04/25 04:06:42;;;;;;;122.70;110.88;;;10.50;70.50;;;;;;5073775;28;20053;-71
2022/04/25 04:11:55;;;;;;;122.75;110.82;;;10.50;70.80;;;;;;5072493;28;20046;-71
2022/04/25 04:14:22;;;;;;;123.13;111.05;;;10.50;71.10;;;;;;5073360;28;20057;-71
2022/04/25 04:16:49;;;;;;;121.82;110.20;;;10.50;70.90;;;;;;5073572;28;20072;-70
2022/04/25 04:19:16;;;;;;;122.55;110.85;;;10.50;71.00;;;;;;5073361;28;20541;-70
2022/04/25 04:21:43;;;;;;;122.32;110.47;;;10.50;71.00;;;;;;5073720;28;20053;-70
2022/04/25 04:24:11;;;;;;;122.60;110.70;;;10.50;71.00;;;;;;5072324;28;20049;-70
2022/04/25 04:26:38;;;;;;;123.88;111.53;;;10.50;71.10;;;;;;5072367;28;20108;-70
2022/04/25 04:29:05;;;;;;;122.82;110.95;;;10.50;71.70;;;;;;5073316;28;20064;-70
2022/04/25 04:31:32;;;;;;;122.32;110.38;;;10.50;71.30;;;;;;5055785;28;20049;-70
2022/04/25 04:34:00;;;;;;;123.97;111.70;;;10.50;71.20;;;;;;5072483;28;20502;-70
2022/04/25 04:36:27;;;;;;;121.57;109.75;;;10.50;71.20;;;;;;5072927;28;20053;-70
2022/04/25 04:38:54;;;;;;;123.32;111.32;;;10.50;71.20;;;;;;5042164;28;20099;-71
2022/04/25 04:41:23;;;;;;;122.97;111.05;;;10.50;71.30;;;;;;5070535;28;20464;-71
2022/04/25 04:43:50;;;;;;;122.93;111.07;;;10.50;71.30;;;;;;5070634;28;20049;-71
2022/04/25 04:46:17;;;;;;;123.05;111.45;;;10.50;71.20;;;;;;5071002;28;20060;-71
2022/04/25 04:48:44;;;;;;;123.03;111.22;;;10.50;71.90;;;;;;5071350;28;20122;-71
2022/04/25 04:51:11;;;;;;;121.75;109.95;;;10.50;71.40;;;;;;5071385;28;20037;-71
2022/04/25 04:53:38;;;;;;;122.30;110.72;;;10.50;71.30;;;;;;5070995;28;20088;-70
2022/04/25 04:56:05;;;;;;;123.63;111.63;;;10.50;71.20;;;;;;5060228;28;20052;-70
2022/04/25 04:58:34;;;;;;;123.30;111.55;;;10.50;71.50;;;;;;5062176;28;20061;-70
2022/04/25 05:01:01;;;;;;;122.82;110.70;;;10.50;71.50;;;;;;5062537;28;20135;-71
2022/04/25 05:03:28;;;;;;;122.63;110.72;;;10.50;71.60;;;;;;5061346;28;20803;-71
2022/04/25 05:05:55;;;;;;;123.53;111.57;;;10.50;71.60;;;;;;5061837;28;20053;-70
2022/04/25 05:08:22;;;;;;;122.82;110.97;;;10.50;71.70;;;;;;5060005;28;20056;-71
2022/04/25 05:10:49;;;;;;;122.22;110.47;;;10.40;71.50;;;;;;5065283;28;20511;-71
2022/04/25 05:13:17;;;;;;;123.47;111.60;;;10.50;71.50;;;;;;5062074;28;20049;-71
2022/04/25 05:15:45;;;;;;;122.68;110.97;;;10.50;71.60;;;;;;5063613;28;20103;-71
2022/04/25 05:18:12;;;;;;;123.82;111.95;;;10.50;72.00;;;;;;5062610;28;20452;-71
2022/04/25 05:20:39;;;;;;;124.20;112.22;;;10.50;71.70;;;;;;5060142;28;20057;-71
2022/04/25 05:23:10;;;;;;;121.97;110.10;;;10.50;71.80;;;;;;5062123;28;20057;-72
2022/04/25 05:25:38;;;;;;;122.05;110.25;;;10.50;71.80;;;;;;5061645;28;20045;-71
2022/04/25 05:28:06;;;;;;;121.40;109.68;;;10.50;71.70;;;;;;5066931;28;20111;-71
2022/04/25 05:30:34;;;;;;;122.72;110.93;;;10.50;71.70;;;;;;5060848;28;20049;-71
2022/04/25 05:33:03;;;;;;;122.28;110.50;;;10.50;71.90;;;;;;5085284;28;20087;-71
2022/04/25 05:35:31;;;;;;;121.50;109.88;;;10.50;71.90;;;;;;5063895;28;20049;-71
2022/04/25 05:38:12;;;;;;;121.43;109.85;;;10.50;72.00;;;;;;5057264;28;20057;-71
2022/04/25 05:40:39;;;;;;;120.45;109.00;;;10.50;72.10;;;;;;5071391;28;20053;-71
2022/04/25 05:43:07;;;;;;;120.93;109.20;;;10.50;71.90;;;;;;5045480;28;20483;-71
2022/04/25 05:45:35;;;;;;;120.70;109.30;;;10.50;72.00;;;;;;5063694;28;20057;-71
2022/04/25 05:51:58;;;;;;;121.25;109.65;;;10.50;72.10;;;;;;5062631;28;20593;-71
2022/04/25 05:53:39;;;;;;;126.32;114.43;;;10.50;71.80;;;;;;5064331;28;20111;-71
2022/04/25 05:56:06;;;;;;;121.85;110.50;;;10.50;71.80;;;;;;5060306;28;20049;-71
2022/04/25 05:58:33;;;;;;;121.32;109.80;;;10.50;72.00;;;;;;5062529;28;20897;-71
2022/04/25 06:01:00;;;;;;;122.07;110.45;;;10.50;71.80;;;;;;5063700;28;20053;-71
2022/04/25 06:03:29;;;;;;;122.13;110.43;;;10.50;71.80;;;;;;5065056;28;20167;-71
2022/04/25 06:05:56;;;;;;;119.93;108.72;;;10.50;71.90;;;;;;5067816;28;20876;-71
2022/04/25 06:08:23;;;;;;;121.38;109.60;;;10.50;71.80;;;;;;5064590;28;20099;-71
2022/04/25 06:10:49;;;;;;;122.40;110.40;;;10.50;71.80;;;;;;5064160;28;20061;-71
2022/04/25 06:13:18;;;;;;;123.82;111.85;;;10.50;72.10;;;;;;5061838;28;20056;-71
2022/04/25 06:15:45;;;;;;;121.97;110.35;;;10.50;72.00;;;;;;5071451;28;20064;-71
2022/04/25 06:18:12;;;;;;;122.97;111.38;;;10.50;72.20;;;;;;5069930;28;20122;-71
2022/04/25 06:20:40;;;;;;;122.88;111.07;;;10.50;72.30;;;;;;5062529;28;20054;-71
2022/04/25 06:23:07;;;;;;;122.03;110.50;;;10.50;72.20;;;;;;5063870;28;20056;-71
2022/04/25 06:25:36;;;;;;;122.28;110.55;;;10.50;72.20;;;;;;5046793;28;20650;-71
2022/04/25 06:28:05;;;;;;;122.57;111.00;;;10.50;72.60;;;;;;5065259;28;20089;-71
2022/04/25 06:30:32;;;;;;;122.55;110.78;;;10.50;72.70;;;;;;5065000;28;20071;-71
2022/04/25 06:32:59;;;;;;;122.15;110.80;;;10.50;72.80;;;;;;5062596;28;20519;-71
2022/04/25 06:35:27;;;;;;;121.70;109.93;;;10.50;72.50;;;;;;5070745;28;20079;-73
2022/04/25 06:37:55;;;;;;;122.90;111.20;;;10.50;72.70;;;;;;5061441;28;20080;-71
2022/04/25 06:40:23;;;;;;;122.60;110.68;;;10.50;72.70;;;;;;5056074;28;20591;-72
2022/04/25 06:42:51;;;;;;;122.65;110.93;;;10.50;72.80;;;;;;5053130;28;20517;-71
2022/04/25 06:45:18;;;;;;;124.30;112.40;;;10.50;72.60;;;;;;5053344;28;20053;-71
2022/04/25 06:47:45;;;;;;;122.07;110.45;;;10.50;72.70;;;;;;5052887;28;20506;-71
2022/04/25 06:50:13;;;;;;;122.80;110.75;;;10.50;72.90;;;;;;5053306;28;20065;-71
2022/04/25 06:52:40;;;;;;;122.72;111.13;;;10.50;73.00;;;;;;5053953;28;20142;-71
2022/04/25 06:55:09;;;;;;;122.50;110.97;;;10.50;72.90;;;;;;5051916;28;20061;-72
2022/04/25 06:57:36;;;;;;;123.90;111.93;;;10.50;72.80;;;;;;5053958;28;20069;-72
2022/04/25 07:00:04;;;;;;;123.18;111.30;;;10.40;72.90;;;;;;5051606;28;20111;-71
2022/04/25 07:02:31;;;;;;;122.22;110.60;;;10.40;72.90;;;;;;5052463;28;20143;-71
2022/04/25 07:04:58;;;;;;;121.85;110.32;;;10.40;73.00;;;;;;5036723;28;20052;-71
2022/04/25 07:07:26;;;;;;;121.40;109.80;;;10.40;73.20;;;;;;5051884;28;20100;-71
2022/04/25 07:09:53;;;;;;;121.32;109.72;;;10.40;73.10;;;;;;5053300;28;20527;-71
2022/04/25 07:12:21;;;;;;;122.25;110.70;;;10.40;73.10;;;;;;5052725;28;20049;-71
2022/04/25 07:14:49;;;;;;;121.72;109.97;;;10.40;73.10;;;;;;5053774;28;20112;-71
2022/04/25 07:17:16;;;;;;;120.85;109.35;;;10.40;73.10;;;;;;5052769;28;20080;-71
2022/04/25 07:19:43;;;;;;;119.97;108.50;;;10.40;73.10;;;;;;5053689;28;21045;-72
2022/04/25 07:30:25;;;;;;;120.50;108.88;;;10.40;73.20;;;;;;5071402;28;20455;-72
2022/04/25 07:32:52;;;;;;;121.00;109.53;;;10.50;73.30;;;;;;5070523;28;20132;-71
2022/04/25 07:35:20;;;;;;;123.63;112.00;;;10.50;73.30;;;;;;5064583;28;20415;-72
2022/04/25 07:37:47;;;;;;;121.05;109.28;;;10.50;73.50;;;;;;5071851;28;20051;-71
2022/04/25 07:40:15;;;;;;;119.65;108.32;;;10.50;73.50;;;;;;5072452;28;20663;-71
2022/04/25 07:42:43;;;;;;;118.30;107.03;;;10.50;73.40;;;;;;5073972;28;20136;-71
2022/04/25 07:45:11;;;;;;;118.80;107.55;;;10.50;73.40;;;;;;5072248;28;20191;-71
2022/04/25 07:47:39;;;;;;;119.15;107.93;;;10.50;73.40;;;;;;5073022;28;20127;-71
2022/04/25 07:50:06;;;;;;;121.40;109.90;;;10.50;73.30;;;;;;5071866;28;20049;-72
2022/04/25 07:52:33;;;;;;;121.07;109.60;;;10.50;73.40;;;;;;5071296;28;20167;-71
2022/04/25 07:55:00;;;;;;;119.88;108.38;;;10.50;73.30;;;;;;5072082;28;20041;-72
2022/04/25 07:57:28;;;;;;;120.38;108.60;;;10.50;73.60;;;;;;5069257;28;20113;-71
2022/04/25 07:59:57;;;;;;;121.22;109.68;;;10.50;73.80;;;;;;5071413;28;20053;-72
2022/04/25 08:02:24;;;;;;;120.53;108.97;;;10.50;73.90;;;;;;5068424;28;20052;-72
2022/04/25 08:04:51;;;;;;;121.10;109.50;;;10.40;73.80;;;;;;5066067;28;20057;-71
2022/04/25 08:07:18;;;;;;;120.97;109.47;;;10.40;73.80;;;;;;5058716;28;20044;-72
2022/04/25 08:09:45;;;;;;;119.43;108.03;;;10.40;73.70;;;;;;5063414;28;20125;-71
2022/04/25 08:18:00;;;;;;;118.32;106.97;;;10.40;73.90;;;;;;5063240;28;20479;-71
2022/04/25 08:20:28;;;;;;;117.13;105.93;;;10.30;73.90;;;;;;5061379;28;20055;-71
2022/04/25 08:22:56;;;;;;;118.28;106.82;;;10.30;74.10;;;;;;5059738;28;20061;-71
2022/04/25 08:25:23;;;;;;;118.30;107.03;;;10.30;74.30;;;;;;5061589;28;20054;-71
2022/04/25 08:27:50;;;;;;;118.90;107.60;;;10.30;74.50;;;;;;5059757;28;20055;-71
2022/04/25 08:30:19;;;;;;;116.72;105.72;;;10.40;74.50;;;;;;5063970;28;20052;-71
2022/04/25 08:32:47;;;;;;;120.07;108.88;;;10.40;74.70;;;;;;5061661;28;20075;-71
2022/04/25 08:35:14;;;;;;;116.25;105.25;;;10.40;74.90;;;;;;5065532;28;20053;-71
2022/04/25 08:37:41;;;;;;;119.47;108.00;;;10.40;74.70;;;;;;5067566;28;20057;-71
2022/04/25 08:40:10;;;;;;;119.43;108.00;;;10.40;74.90;;;;;;5061077;28;20814;-71
2022/04/25 08:42:37;;;;;;;118.78;107.57;;;10.40;74.90;;;;;;5063586;28;20563;-71
2022/04/25 08:45:06;;;;;;;120.65;109.32;;;10.40;74.90;;;;;;5062136;28;20045;-71
2022/04/25 08:47:40;;;;;;;119.95;108.47;;;10.40;75.10;;;;;;5061567;28;20050;-71
2022/04/25 08:50:08;;;;;;;122.30;110.93;;;10.40;75.30;;;;;;5062596;28;20056;-72
2022/04/25 08:52:35;;;;;;;121.05;109.60;;;10.50;75.70;;;;;;5064421;28;20050;-71
2022/04/25 08:55:03;;;;;;;121.57;110.25;;;10.50;75.50;;;;;;5043345;28;20052;-71
2022/04/25 08:57:35;;;;;;;121.70;110.30;;;10.50;75.50;;;;;;5064365;28;20092;-71
2022/04/25 09:00:04;;;;;;;120.38;109.00;;;10.50;75.60;;;;;;5043401;28;20411;-71
2022/04/25 09:02:31;;;;;;;121.93;110.55;;;10.50;75.60;;;;;;5063895;28;20062;-71
2022/04/25 09:04:59;;;;;;;120.25;108.88;;;10.50;75.50;;;;;;5064125;28;20057;-71
2022/04/25 09:07:26;;;;;;;121.13;109.72;;;10.60;75.60;;;;;;5062141;28;20510;-72
2022/04/25 09:09:54;;;;;;;120.55;108.97;;;10.50;75.50;;;;;;5061646;28;20092;-71
2022/04/25 09:12:21;;;;;;;119.18;107.97;;;10.60;75.50;;;;;;5062863;28;20143;-71
2022/04/25 09:14:48;;;;;;;119.78;108.60;;;10.60;75.90;;;;;;5058985;28;20132;-72
2022/04/25 09:17:15;;;;;;;121.45;110.22;;;10.60;75.90;;;;;;5057798;28;20045;-72
2022/04/25 09:19:42;;;;;;;118.57;107.47;;;10.60;76.00;;;;;;5065039;28;20850;-72
2022/04/25 09:22:11;;;;;;;120.90;109.68;;;10.60;76.10;;;;;;5060926;28;20140;-71
2022/04/25 09:24:45;;;;;;;118.43;107.25;;;10.70;76.20;;;;;;5063327;28;20132;-72
2022/04/25 09:27:16;;;;;;;121.22;110.10;;;10.70;76.20;;;;;;5062942;28;20467;-72
2022/04/25 09:29:43;;;;;;;119.15;107.60;;;10.70;76.20;;;;;;5058567;28;20077;-71
2022/04/25 09:32:10;;;;;;;117.93;106.65;;;10.70;76.10;;;;;;5061955;28;20148;-71
2022/04/25 09:37:37;;;;;;;;;;;10.70;75.90;;;;;;5057421;28;20053;-74
2022/04/25 09:40:07;;;;;;;117.68;106.53;;;10.80;75.00;;;;;;5083677;28;20914;-73
2022/04/25 09:42:34;;;;;;;117.63;106.35;;;10.70;75.40;;;;;;5063928;28;20128;-73
2022/04/25 09:45:01;;;;;;;117.53;106.63;;;10.80;75.40;;;;;;5073475;28;20135;-74
2022/04/25 09:47:30;;;;;;;117.25;106.25;;;10.80;75.30;;;;;;5060022;28;20099;-74
2022/04/25 09:50:01;;;;;;;119.35;108.05;;;10.80;75.30;;;;;;5054565;28;20042;-74
2022/04/25 09:52:29;;;;;;;117.50;106.50;;;10.80;75.30;;;;;;5060582;28;20049;-73
2022/04/25 09:54:58;;;;;;;120.03;108.15;;;10.80;75.10;;;;;;5074689;28;20052;-73
2022/04/25 09:57:32;;;;;;;119.60;108.20;;;10.90;75.10;;;;;;5072091;28;20057;-73
2022/04/25 10:00:00;;;;;;;117.87;106.67;;;10.90;75.30;;;;;;5073866;28;20076;-74
2022/04/25 10:02:28;;;;;;;118.05;106.90;;;10.80;75.20;;;;;;5067099;28;20157;-73
2022/04/25 10:04:55;;;;;;;118.70;107.45;;;10.80;75.30;;;;;;5070942;28;20041;-73
2022/04/25 10:07:23;;;;;;;119.88;108.45;;;10.80;75.30;;;;;;5068331;28;20106;-71
2022/04/25 10:09:52;;;;;;;121.20;109.18;;;10.90;75.40;;;;;;5071112;28;20053;-71
2022/04/25 10:12:19;;;;;;;119.10;107.82;;;10.90;75.50;;;;;;5060833;28;20053;-71
2022/04/25 10:14:48;;;;;;;119.15;107.85;;;10.90;75.30;;;;;;5064275;28;20055;-72
2022/04/25 10:17:16;;;;;;;119.70;108.32;;;10.90;75.30;;;;;;5060473;28;20125;-72
2022/04/25 10:19:44;;;;;;;118.13;107.03;;;10.90;75.30;;;;;;5066350;28;20518;-72
2022/04/25 10:22:11;;;;;;;118.40;107.10;;;10.90;75.80;;;;;;5066170;28;20147;-71
2022/04/25 10:24:39;;;;;;;118.03;106.68;;;10.90;75.30;;;;;;5063061;28;20057;-72
2022/04/25 10:27:11;;;;;;;120.53;108.95;;;10.90;75.30;;;;;;5064583;28;20138;-72
2022/04/25 10:29:45;;;;;;;116.53;105.43;;;10.90;75.50;;;;;;5061945;28;20052;-72
2022/04/25 10:32:19;;;;;;;118.30;107.15;;;10.90;75.40;;;;;;5070552;28;20140;-72
2022/04/25 10:34:51;;;;;;;119.18;107.88;;;10.90;75.40;;;;;;5066615;28;20056;-72
2022/04/25 10:37:32;;;;;;;118.03;107.03;;;11.00;75.60;;;;;;5068782;28;20053;-71
2022/04/25 10:40:00;;;;;;;116.10;105.07;;;11.00;75.60;;;;;;5064785;28;20103;-71
2022/04/25 10:45:13;;;;;;;117.00;105.80;;;11.10;75.50;;;;;;5055417;28;20467;-71
2022/04/25 10:47:58;;;;;;;117.45;106.25;;;11.20;75.30;;;;;;5049910;28;20144;-71
2022/04/25 10:50:26;;;;;;;117.63;106.32;;;11.20;75.20;;;;;;5064857;28;20048;-71
2022/04/25 10:52:54;;;;;;;117.68;106.72;;;11.20;75.20;;;;;;5061874;28;20576;-71
2022/04/25 10:55:26;;;;;;;117.70;106.70;;;11.30;75.30;;;;;;5069187;28;20048;-71
2022/04/25 10:58:19;;;;;;;120.03;108.80;;;11.30;75.10;;;;;;5078857;28;20057;-71
2022/04/25 11:00:51;;;;;;;119.55;108.05;;;11.40;75.00;;;;;;5063208;28;20054;-71
2022/04/25 11:03:23;;;;;;;119.85;108.57;;;11.40;75.10;;;;;;5062475;28;20042;-71
2022/04/25 11:05:51;;;;;;;120.70;109.35;;;11.40;75.10;;;;;;5062602;28;20053;-71
2022/04/25 11:08:49;;;;;;;120.68;109.18;;;11.50;75.80;;;;;;5063630;28;20060;-71
2022/04/25 11:11:20;;;;;;;119.30;107.97;;;11.50;76.40;;;;;;5055066;28;20056;-74
2022/04/25 11:14:23;;;;;;;118.95;107.82;;;11.50;76.60;;;;;;5052839;28;20053;-72
2022/04/25 11:17:11;;;;;;;117.30;106.20;;;11.60;76.90;;;;;;5070796;28;20128;-73
2022/04/25 11:19:48;;;;;;;118.38;107.28;;;11.60;76.60;;;;;;5061754;28;20261;-73
2022/04/25 11:22:48;;;;;;;118.60;107.18;;;11.70;76.50;;;;;;5063632;28;20049;-72
2022/04/25 11:25:39;;;;;;;120.53;108.57;;;11.70;76.60;;;;;;5062804;28;20044;-72
2022/04/25 11:28:08;;;;;;;118.47;107.25;;;11.70;76.50;;;;;;5061992;28;20045;-71
2022/04/25 11:30:36;;;;;;;118.63;107.50;;;11.80;76.60;;;;;;5064102;28;20096;-73
2022/04/25 11:33:04;;;;;;;119.22;108.00;;;11.90;76.20;;;;;;5064069;28;20096;-73
2022/04/25 11:35:33;;;;;;;118.07;106.65;;;11.90;75.90;;;;;;5066888;28;20075;-72
2022/04/25 11:38:00;;;;;;;122.15;109.53;;;12.00;76.00;;;;;;5070943;28;20060;-73
2022/04/25 11:40:28;;;;;;;119.10;107.68;;;12.00;76.00;;;;;;5069498;28;20057;-73
2022/04/25 11:42:56;;;;;;;118.35;107.22;;;12.00;76.30;;;;;;5070349;28;20049;-73
2022/04/25 11:45:23;;;;;;;121.22;109.78;;;12.00;75.70;;;;;;5069213;28;20128;-73
2022/04/25 11:47:50;;;;;;;119.18;107.97;;;12.00;75.70;;;;;;5069727;28;20051;-73
2022/04/25 11:50:20;;;;;;;118.55;107.32;;;12.10;75.50;;;;;;5072088;28;20049;-73
2022/04/25 11:52:51;;;;;;;121.03;110.03;;;12.10;75.60;;;;;;5064466;28;20045;-72
2022/04/25 11:55:19;;;;;;;120.90;109.85;;;12.10;75.50;;;;;;5057208;28;20103;-72
2022/04/25 11:57:46;;;;;;;123.10;111.82;;;12.20;75.30;;;;;;5061952;28;20052;-72
2022/04/25 12:00:16;;;;;;;122.45;110.85;;;12.20;75.40;;;;;;5068275;28;20064;-71
2022/04/25 12:02:49;;;;;;;122.50;110.85;;;12.30;75.50;;;;;;5067940;28;20080;-72
2022/04/25 12:05:26;;;;;;;124.88;112.63;;;12.30;75.40;;;;;;5069314;28;20059;-71
2022/04/25 12:16:09;;;;;;;;;;;12.60;76.20;;;;;;5069204;28;20048;-71
2022/04/25 12:18:47;;;;;;;119.85;108.78;;;12.70;75.40;;;;;;5071338;28;19947;-71
2022/04/25 12:21:16;;;;;;;120.13;109.05;;;12.70;75.50;;;;;;5070572;28;20053;-71
2022/04/25 12:23:49;;;;;;;123.53;112.38;;;12.80;75.90;;;;;;5065353;28;20056;-71
2022/04/25 12:26:18;;;;;;;122.32;110.68;;;12.90;76.40;;;;;;5049319;28;20053;-71
2022/04/25 12:28:50;;;;;;;124.32;113.05;;;13.00;75.80;;;;;;5060871;28;20084;-71
2022/04/25 12:31:19;;;;;;;122.00;110.90;;;13.10;75.60;;;;;;5064352;28;20049;-71
2022/04/25 12:33:47;;;;;;;124.35;113.10;;;13.20;75.40;;;;;;5063480;28;20511;-71
2022/04/25 12:36:16;;;;;;;125.53;114.13;;;13.20;74.30;;;;;;5067616;28;20050;-72
2022/04/25 12:38:45;;;;;;;122.85;111.90;;;13.30;74.10;;;;;;5071116;28;20053;-72
2022/04/25 12:41:21;;;;;;;123.18;112.07;;;13.40;74.20;;;;;;5051525;28;20049;-71
2022/04/25 12:43:50;;;;;;;122.78;111.88;;;13.50;74.00;;;;;;5052381;28;20819;-72
2022/04/25 12:46:19;;;;;;;120.70;109.88;;;13.60;73.90;;;;;;5074682;28;20079;-71
2022/04/25 12:48:57;;;;;;;124.78;113.40;;;13.70;73.70;;;;;;5068303;28;20076;-71
2022/04/25 12:51:36;;;;;;;123.15;112.13;;;13.80;73.60;;;;;;5071190;28;20041;-71
2022/04/25 12:54:06;;;;;;;124.50;113.57;;;13.90;73.80;;;;;;5069221;28;20076;-72
2022/04/25 12:56:36;;;;;;;131.23;112.90;;;14.00;73.60;;;;;;5071497;28;20162;-71
2022/04/25 12:59:03;;;;;;;122.20;111.47;;;14.10;73.20;;;;;;5063886;28;20045;-71